Time;durP1;ratioP1;P1;durP2;ratioP2;P2;SDS_P1;SDS_P2;PMS_P1;PMS_P2;Temp;Humidity;BMP_temperature;BMP_pressure;BME280_temperature;BME280_humidity;BME280_pressure;Samples;Min_cycle;Max_cycle;Signal;HPM_P1;HPM_P2
2023/04/07 00:01:37;;;;;;;5.43;4.93;;;8.30;99.90;;;;;;6185913;28;20402;-79
2023/04/07 00:04:43;;;;;;;6.00;5.50;;;8.30;99.90;;;;;;6165754;28;20047;-77
2023/04/07 00:07:45;;;;;;;5.28;4.80;;;8.30;99.90;;;;;;6178034;28;20054;-79
2023/04/07 00:10:47;;;;;;;4.15;3.85;;;8.30;99.90;;;;;;6182518;28;20060;-77
2023/04/07 00:13:53;;;;;;;5.10;4.32;;;8.30;99.90;;;;;;6189417;28;20101;-77
2023/04/07 00:16:57;;;;;;;4.18;3.80;;;8.30;99.90;;;;;;6190007;28;20047;-76
2023/04/07 00:19:59;;;;;;;4.40;4.03;;;8.30;99.90;;;;;;6196997;28;20060;-79
2023/04/07 00:23:04;;;;;;;5.13;4.65;;;8.30;99.90;;;;;;6196195;28;20047;-77
2023/04/07 00:26:14;;;;;;;4.90;4.50;;;8.20;99.90;;;;;;6193924;28;20047;-78
2023/04/07 00:29:17;;;;;;;4.22;3.83;;;8.30;99.90;;;;;;6177906;28;20057;-77
2023/04/07 00:32:19;;;;;;;4.50;4.10;;;8.20;99.90;;;;;;6183480;28;20049;-78
2023/04/07 00:35:21;;;;;;;6.30;4.10;;;8.20;99.90;;;;;;6191546;28;20050;-77
2023/04/07 00:38:22;;;;;;;4.75;3.92;;;8.20;99.90;;;;;;6190977;28;20046;-78
2023/04/07 00:41:24;;;;;;;5.22;4.10;;;8.20;99.90;;;;;;6182984;28;20051;-78
2023/04/07 00:44:28;;;;;;;4.03;3.72;;;8.20;99.90;;;;;;6191557;28;20499;-78
2023/04/07 00:47:29;;;;;;;4.50;4.13;;;8.20;99.90;;;;;;6191955;28;20057;-77
2023/04/07 00:50:31;;;;;;;4.57;4.18;;;8.20;99.90;;;;;;6192894;28;20399;-78
2023/04/07 00:53:33;;;;;;;3.88;3.58;;;8.20;99.90;;;;;;6192390;28;20046;-78
2023/04/07 00:56:35;;;;;;;4.15;3.75;;;8.20;99.90;;;;;;6191883;28;20059;-78
2023/04/07 00:59:38;;;;;;;4.60;4.25;;;8.30;99.90;;;;;;6189870;28;20054;-78
2023/04/07 01:02:42;;;;;;;6.43;3.72;;;8.30;99.90;;;;;;6189758;28;20043;-77
2023/04/07 01:05:55;;;;;;;4.43;4.03;;;8.30;99.90;;;;;;6192572;28;20061;-77
2023/04/07 01:09:02;;;;;;;4.57;4.18;;;8.20;99.90;;;;;;6191206;28;20054;-78
2023/04/07 01:12:12;;;;;;;4.75;4.22;;;8.20;99.90;;;;;;6183740;28;20043;-79
2023/04/07 01:15:20;;;;;;;3.78;3.47;;;8.20;99.90;;;;;;6193897;28;20056;-79
2023/04/07 01:18:27;;;;;;;4.78;4.00;;;8.10;99.90;;;;;;6192874;28;20574;-78
2023/04/07 01:21:33;;;;;;;6.03;4.45;;;8.10;99.90;;;;;;6177434;28;20066;-78
2023/04/07 01:24:52;;;;;;;4.65;3.92;;;8.00;99.90;;;;;;6177681;28;20043;-78
2023/04/07 01:28:11;;;;;;;5.28;3.90;;;8.00;99.90;;;;;;6183310;28;20047;-79
2023/04/07 01:31:15;;;;;;;5.10;4.43;;;8.00;99.90;;;;;;6178135;28;20051;-79
2023/04/07 01:34:18;;;;;;;3.78;3.47;;;7.90;99.90;;;;;;6154680;28;20506;-78
2023/04/07 01:37:21;;;;;;;3.45;3.22;;;7.90;99.90;;;;;;6154684;28;20058;-78
2023/04/07 01:40:24;;;;;;;6.70;4.65;;;7.90;99.90;;;;;;6160902;28;20421;-79
2023/04/07 01:43:27;;;;;;;4.50;4.03;;;7.90;99.90;;;;;;6173376;28;20058;-79
2023/04/07 01:46:30;;;;;;;4.60;4.20;;;7.90;99.90;;;;;;6176298;28;20047;-78
2023/04/07 01:49:33;;;;;;;4.85;4.07;;;7.90;99.90;;;;;;6178083;28;20046;-78
2023/04/07 01:52:36;;;;;;;4.82;4.25;;;7.90;99.90;;;;;;6176791;28;20046;-79
2023/04/07 01:55:38;;;;;;;4.50;4.10;;;7.90;99.90;;;;;;6177452;28;20050;-79
2023/04/07 01:58:39;;;;;;;5.15;4.32;;;7.90;99.90;;;;;;6177539;28;20394;-79
2023/04/07 02:01:42;;;;;;;4.90;4.50;;;7.90;99.90;;;;;;6171171;28;20047;-79
2023/04/07 02:04:52;;;;;;;4.32;4.03;;;7.90;99.90;;;;;;6170473;28;20057;-79
2023/04/07 02:07:59;;;;;;;4.95;4.55;;;7.90;99.90;;;;;;6176953;28;20047;-79
2023/04/07 02:11:02;;;;;;;4.38;4.00;;;7.90;99.90;;;;;;6169332;28;20064;-79
2023/04/07 02:14:06;;;;;;;4.30;3.90;;;7.90;99.90;;;;;;6187703;28;20046;-79
2023/04/07 02:17:10;;;;;;;4.90;3.38;;;7.90;99.90;;;;;;6182827;28;20059;-79
2023/04/07 02:20:13;;;;;;;8.10;4.85;;;7.90;99.90;;;;;;6174499;28;20421;-78
2023/04/07 02:23:16;;;;;;;3.90;3.60;;;7.90;99.90;;;;;;6176186;28;20050;-79
2023/04/07 02:26:17;;;;;;;4.30;4.00;;;7.90;99.90;;;;;;6175755;28;20049;-79
2023/04/07 02:29:19;;;;;;;3.33;3.03;;;7.80;99.90;;;;;;6159493;28;20058;-78
2023/04/07 02:32:22;;;;;;;7.07;4.10;;;7.90;99.90;;;;;;6161722;28;20050;-79
2023/04/07 02:35:24;;;;;;;4.03;3.63;;;7.70;99.90;;;;;;6152496;28;20058;-79
2023/04/07 02:38:26;;;;;;;3.88;3.30;;;7.70;99.90;;;;;;6152001;28;20050;-79
2023/04/07 02:41:27;;;;;;;4.32;3.92;;;7.70;99.90;;;;;;6165126;28;20047;-78
2023/04/07 02:44:30;;;;;;;3.58;3.28;;;7.70;99.90;;;;;;6176011;28;20429;-78
2023/04/07 02:47:33;;;;;;;3.78;3.47;;;7.70;99.90;;;;;;6176030;28;20432;-79
2023/04/07 02:50:34;;;;;;;4.53;4.20;;;7.70;99.90;;;;;;6175787;28;20394;-79
2023/04/07 02:53:36;;;;;;;4.50;4.20;;;7.70;99.90;;;;;;6175855;28;20528;-79
2023/04/07 02:56:38;;;;;;;4.30;4.00;;;7.70;99.90;;;;;;6175317;28;20099;-79
2023/04/07 02:59:40;;;;;;;4.13;3.83;;;7.70;99.90;;;;;;6174674;28;20572;-79
2023/04/07 03:02:43;;;;;;;4.38;3.75;;;7.60;99.90;;;;;;6175025;28;20043;-78
2023/04/07 03:05:44;;;;;;;4.85;3.45;;;7.60;99.90;;;;;;6175356;28;20054;-78
2023/04/07 03:08:46;;;;;;;5.32;4.65;;;7.60;99.90;;;;;;6174375;28;20051;-79
2023/04/07 03:11:48;;;;;;;5.28;4.82;;;7.60;99.90;;;;;;6166348;28;20102;-78
2023/04/07 03:14:49;;;;;;;4.55;4.10;;;7.60;99.90;;;;;;6174201;28;20050;-78
2023/04/07 03:17:52;;;;;;;5.45;4.53;;;7.60;99.90;;;;;;6174747;28;20062;-78
2023/04/07 03:20:55;;;;;;;5.50;4.45;;;7.60;99.90;;;;;;6175298;28;20054;-79
2023/04/07 03:23:56;;;;;;;5.30;4.80;;;7.60;99.90;;;;;;6173747;28;20054;-78
2023/04/07 03:26:58;;;;;;;5.90;5.40;;;7.70;99.90;;;;;;6174797;28;20057;-79
2023/04/07 03:30:00;;;;;;;7.03;6.38;;;7.70;99.90;;;;;;6174211;28;20055;-78
2023/04/07 03:33:03;;;;;;;5.85;5.32;;;7.70;99.90;;;;;;6161071;28;20126;-79
2023/04/07 03:36:05;;;;;;;4.60;3.75;;;7.70;99.90;;;;;;6158157;28;20039;-79
2023/04/07 03:39:07;;;;;;;5.57;4.65;;;7.70;99.90;;;;;;6156514;28;20051;-79
2023/04/07 03:42:08;;;;;;;6.03;5.45;;;7.80;99.90;;;;;;6167601;28;20062;-78
2023/04/07 03:45:10;;;;;;;4.68;4.38;;;7.80;99.90;;;;;;6175443;28;20058;-79
2023/04/07 03:48:13;;;;;;;3.90;3.60;;;7.70;99.90;;;;;;6175422;28;20058;-79
2023/04/07 03:51:16;;;;;;;7.82;4.07;;;7.70;99.90;;;;;;6175529;28;20046;-78
2023/04/07 03:54:17;;;;;;;5.97;4.68;;;7.50;99.90;;;;;;6177994;28;20417;-79
2023/04/07 03:57:19;;;;;;;5.53;5.03;;;7.40;99.90;;;;;;6179593;28;20505;-79
2023/04/07 04:00:21;;;;;;;4.95;4.40;;;7.40;99.90;;;;;;6172649;28;20403;-79
2023/04/07 04:03:24;;;;;;;4.60;3.88;;;7.40;99.90;;;;;;6156271;28;20050;-79
2023/04/07 04:06:26;;;;;;;4.38;4.05;;;7.40;99.90;;;;;;6154270;28;20043;-78
2023/04/07 04:09:28;;;;;;;5.25;3.95;;;7.40;99.90;;;;;;6159149;28;20098;-79
2023/04/07 04:12:30;;;;;;;3.97;3.67;;;7.40;99.90;;;;;;6170152;28;20073;-78
2023/04/07 04:15:32;;;;;;;4.63;4.07;;;7.30;99.90;;;;;;6177591;28;20050;-79
2023/04/07 04:18:35;;;;;;;3.58;3.28;;;7.40;99.90;;;;;;6177682;28;20069;-78
2023/04/07 04:21:36;;;;;;;4.80;4.18;;;7.30;99.90;;;;;;6178541;28;20055;-78
2023/04/07 04:24:40;;;;;;;3.95;3.60;;;7.30;99.90;;;;;;6178819;28;20049;-79
2023/04/07 04:27:42;;;;;;;4.00;3.70;;;7.30;99.90;;;;;;6169575;28;20118;-79
2023/04/07 04:30:43;;;;;;;4.82;3.55;;;7.20;99.90;;;;;;6155147;28;20043;-79
2023/04/07 04:33:46;;;;;;;4.50;4.20;;;7.20;99.90;;;;;;6155804;28;20054;-79
2023/04/07 04:36:48;;;;;;;3.90;3.60;;;7.30;99.90;;;;;;6155189;28;20062;-79
2023/04/07 04:39:50;;;;;;;4.15;3.85;;;7.20;99.90;;;;;;6162816;28;20047;-79
2023/04/07 04:42:52;;;;;;;3.85;3.55;;;7.30;99.90;;;;;;6173120;28;20043;-79
2023/04/07 04:45:55;;;;;;;4.20;3.72;;;7.30;99.90;;;;;;6156677;28;20051;-79
2023/04/07 04:48:58;;;;;;;4.18;3.88;;;7.30;99.90;;;;;;6156015;28;20055;-79
2023/04/07 04:51:59;;;;;;;4.93;4.47;;;7.30;99.90;;;;;;6154979;28;20106;-78
2023/04/07 04:55:01;;;;;;;6.57;5.80;;;7.30;99.90;;;;;;6154139;28;20047;-78
2023/04/07 04:58:03;;;;;;;4.63;4.22;;;7.40;99.90;;;;;;6154279;28;20064;-79
2023/04/07 05:01:05;;;;;;;4.40;4.10;;;7.50;99.90;;;;;;6155517;28;20062;-79
2023/04/07 05:04:09;;;;;;;4.97;4.55;;;7.50;99.90;;;;;;6152796;28;20043;-79
2023/04/07 05:07:10;;;;;;;4.78;4.38;;;7.50;99.90;;;;;;6155914;28;20126;-78
2023/04/07 05:10:12;;;;;;;6.60;3.65;;;7.60;99.90;;;;;;6170761;28;20062;-78
2023/04/07 05:13:14;;;;;;;4.72;4.13;;;7.60;99.90;;;;;;6176803;28;20043;-79
2023/04/07 05:16:16;;;;;;;5.10;4.68;;;7.70;99.90;;;;;;6178711;28;20054;-79
2023/04/07 05:19:19;;;;;;;4.65;4.25;;;7.70;99.90;;;;;;6177877;28;20125;-79
2023/04/07 05:22:20;;;;;;;4.25;3.85;;;7.70;99.90;;;;;;6176633;28;20072;-79
2023/04/07 05:25:22;;;;;;;5.40;4.90;;;7.80;99.90;;;;;;6177992;28;20043;-79
2023/04/07 05:28:24;;;;;;;4.32;3.92;;;7.80;99.90;;;;;;6178028;28;20047;-79
2023/04/07 05:31:26;;;;;;;5.32;4.93;;;7.80;99.90;;;;;;6176951;28;20564;-79
2023/04/07 05:34:29;;;;;;;6.32;4.97;;;7.90;99.90;;;;;;6153343;28;20696;-79
2023/04/07 05:37:31;;;;;;;5.15;4.65;;;7.90;99.90;;;;;;6153499;28;20055;-79
2023/04/07 05:40:32;;;;;;;4.53;4.13;;;7.90;99.90;;;;;;6160249;28;20062;-78
2023/04/07 05:43:34;;;;;;;7.72;4.72;;;7.90;99.90;;;;;;6173870;28;20525;-79
2023/04/07 05:46:35;;;;;;;4.35;3.95;;;7.90;99.90;;;;;;6187255;28;20051;-79
2023/04/07 05:49:44;;;;;;;4.85;4.45;;;7.90;99.90;;;;;;6178471;28;20065;-79
2023/04/07 05:52:46;;;;;;;4.47;4.07;;;8.00;99.90;;;;;;6177490;28;20073;-79
2023/04/07 05:55:47;;;;;;;4.03;3.70;;;8.00;99.90;;;;;;6176372;28;20078;-78
2023/04/07 05:58:49;;;;;;;4.63;4.22;;;8.00;99.90;;;;;;6176588;28;20061;-78
2023/04/07 06:01:53;;;;;;;4.78;4.28;;;8.10;99.90;;;;;;6154934;28;20054;-78
2023/04/07 06:04:56;;;;;;;4.70;4.28;;;8.20;99.90;;;;;;6152333;28;20130;-79
2023/04/07 06:07:57;;;;;;;4.07;3.75;;;8.30;99.90;;;;;;6152598;28;20060;-78
2023/04/07 06:11:00;;;;;;;5.13;4.72;;;8.50;99.90;;;;;;6159803;28;20289;-79
2023/04/07 06:14:02;;;;;;;4.70;4.13;;;8.60;99.90;;;;;;6174961;28;20094;-78
2023/04/07 06:17:03;;;;;;;4.53;3.25;;;8.70;99.90;;;;;;6176138;28;20059;-78
2023/04/07 06:20:08;;;;;;;5.70;4.45;;;8.80;99.90;;;;;;6175577;28;20101;-78
2023/04/07 06:23:09;;;;;;;12.73;6.25;;;8.90;99.90;;;;;;6176890;28;20061;-79
2023/04/07 06:26:12;;;;;;;5.53;4.85;;;9.00;99.90;;;;;;6176810;28;20058;-79
2023/04/07 06:29:13;;;;;;;4.00;3.58;;;9.10;99.90;;;;;;6176436;28;20053;-79
2023/04/07 06:32:16;;;;;;;5.97;4.90;;;9.20;99.90;;;;;;6168569;28;20399;-79
2023/04/07 06:35:19;;;;;;;6.05;5.45;;;9.30;99.90;;;;;;6149498;28;20039;-79
2023/04/07 06:38:20;;;;;;;5.07;4.57;;;9.50;99.90;;;;;;6151725;28;20058;-78
2023/04/07 06:41:22;;;;;;;5.35;4.85;;;9.70;99.90;;;;;;6163740;28;20694;-78
2023/04/07 06:44:24;;;;;;;5.43;5.03;;;9.80;99.90;;;;;;6175432;28;20042;-78
2023/04/07 06:47:25;;;;;;;4.80;4.40;;;10.00;99.90;;;;;;6175662;28;20047;-79
2023/04/07 06:50:28;;;;;;;4.75;4.18;;;10.20;99.90;;;;;;6186113;28;20050;-79
2023/04/07 06:53:30;;;;;;;5.90;4.20;;;10.40;99.90;;;;;;6177705;28;20055;-79
2023/04/07 06:56:33;;;;;;;4.85;4.45;;;10.70;99.90;;;;;;6177077;28;20054;-78
2023/04/07 06:59:34;;;;;;;4.40;3.97;;;11.10;99.90;;;;;;6153817;28;20050;-80
2023/04/07 07:02:36;;;;;;;4.97;4.45;;;11.60;99.90;;;;;;6188263;28;20047;-80
2023/04/07 07:05:39;;;;;;;8.77;4.82;;;12.00;99.90;;;;;;6172702;28;20062;-78
2023/04/07 07:08:42;;;;;;;4.40;4.00;;;12.50;99.90;;;;;;6166344;28;20064;-79
2023/04/07 07:11:44;;;;;;;5.47;3.90;;;12.80;99.90;;;;;;6178837;28;20057;-80
2023/04/07 07:14:46;;;;;;;3.53;3.20;;;13.10;99.90;;;;;;6153925;28;20055;-79
2023/04/07 07:17:48;;;;;;;5.53;4.75;;;13.40;99.90;;;;;;6152789;28;20051;-79
2023/04/07 07:20:51;;;;;;;4.18;3.80;;;13.90;99.90;;;;;;6148676;28;20043;-76
2023/04/07 07:23:53;;;;;;;5.35;4.82;;;14.40;99.90;;;;;;6152055;28;20498;-77
2023/04/07 07:26:55;;;;;;;4.47;4.00;;;14.70;99.90;;;;;;6147769;28;20055;-76
2023/04/07 07:29:57;;;;;;;5.43;3.88;;;14.90;99.90;;;;;;6158587;28;20066;-79
2023/04/07 07:32:58;;;;;;;4.18;3.78;;;15.00;99.90;;;;;;6158962;28;20051;-79
2023/04/07 07:36:01;;;;;;;2.80;2.53;;;14.80;99.90;;;;;;6152189;28;20564;-77
2023/04/07 07:39:04;;;;;;;4.30;4.00;;;14.70;99.90;;;;;;6159672;28;20051;-78
2023/04/07 07:42:06;;;;;;;3.65;3.35;;;14.60;99.90;;;;;;6160493;28;20057;-78
2023/04/07 07:45:12;;;;;;;3.90;3.47;;;14.60;99.90;;;;;;6160945;28;20486;-79
2023/04/07 07:48:16;;;;;;;6.38;4.65;;;14.40;99.90;;;;;;6155127;28;20051;-79
2023/04/07 07:51:19;;;;;;;4.25;3.95;;;14.10;99.90;;;;;;6156499;28;20049;-79
2023/04/07 07:54:21;;;;;;;4.43;4.03;;;14.00;99.90;;;;;;6166564;28;20047;-79
2023/04/07 07:57:22;;;;;;;3.83;3.53;;;13.70;99.90;;;;;;6155530;28;20054;-79
2023/04/07 08:00:24;;;;;;;3.83;3.60;;;13.10;99.90;;;;;;6156044;28;20039;-79
2023/04/07 08:03:26;;;;;;;3.90;3.60;;;13.10;99.90;;;;;;6156288;28;20043;-80
2023/04/07 08:06:30;;;;;;;3.97;3.55;;;14.00;99.90;;;;;;6155940;28;20051;-78
2023/04/07 08:09:34;;;;;;;5.43;4.93;;;15.00;99.90;;;;;;6154364;28;20044;-79
2023/04/07 08:12:36;;;;;;;4.55;4.15;;;15.80;99.90;;;;;;6154918;28;20418;-78
2023/04/07 08:15:38;;;;;;;5.13;3.78;;;16.80;99.90;;;;;;6151032;28;20399;-78
2023/04/07 08:18:40;;;;;;;3.75;3.40;;;17.60;99.50;;;;;;6152196;28;20137;-80
2023/04/07 08:21:43;;;;;;;4.65;3.80;;;18.00;97.20;;;;;;6155148;28;20433;-78
2023/04/07 08:24:46;;;;;;;4.90;3.28;;;18.30;97.50;;;;;;6151690;28;20045;-78
2023/04/07 08:27:48;;;;;;;3.72;3.42;;;18.90;96.20;;;;;;6156384;28;20047;-78
2023/04/07 08:30:49;;;;;;;7.47;3.50;;;19.10;95.30;;;;;;6149245;28;20047;-78
2023/04/07 08:33:52;;;;;;;3.22;2.92;;;18.30;93.90;;;;;;6149890;28;20055;-78
2023/04/07 08:36:56;;;;;;;3.50;3.20;;;17.80;94.30;;;;;;6145430;28;20059;-78
2023/04/07 08:39:57;;;;;;;4.07;3.70;;;17.20;93.90;;;;;;6149353;28;20085;-77
2023/04/07 08:43:00;;;;;;;5.05;3.88;;;16.50;94.50;;;;;;6159252;28;20078;-78
2023/04/07 08:46:02;;;;;;;5.07;4.38;;;16.60;95.40;;;;;;6152162;28;20056;-78
2023/04/07 08:49:08;;;;;;;10.48;8.88;;;16.70;94.90;;;;;;6160107;28;20476;-77
2023/04/07 08:52:16;;;;;;;4.03;3.10;;;16.60;94.70;;;;;;6150007;28;20046;-78
2023/04/07 08:55:18;;;;;;;11.75;10.70;;;16.80;94.70;;;;;;6154424;28;20049;-77
2023/04/07 08:58:20;;;;;;;5.85;3.50;;;16.70;94.00;;;;;;6156815;28;20070;-78
2023/04/07 09:01:23;;;;;;;3.55;3.20;;;16.80;94.40;;;;;;6163337;28;20051;-79
2023/04/07 09:04:26;;;;;;;3.90;3.13;;;17.40;93.90;;;;;;6158656;28;20054;-78
2023/04/07 09:07:30;;;;;;;3.78;3.45;;;18.10;93.50;;;;;;6153707;28;20546;-79
2023/04/07 09:10:32;;;;;;;7.15;3.72;;;18.80;92.90;;;;;;6158870;28;20046;-79
2023/04/07 09:13:34;;;;;;;4.22;3.50;;;19.50;91.90;;;;;;6154338;28;20548;-79
2023/04/07 09:16:36;;;;;;;5.25;3.83;;;20.10;91.30;;;;;;6158013;28;20051;-78
2023/04/07 09:19:37;;;;;;;4.57;3.40;;;20.50;90.10;;;;;;6161130;28;20043;-78
2023/04/07 09:22:44;;;;;;;4.50;3.47;;;20.80;88.80;;;;;;6156188;28;20135;-76
2023/04/07 09:25:46;;;;;;;4.07;3.60;;;21.20;86.00;;;;;;6149836;28;20138;-75
2023/04/07 09:28:49;;;;;;;3.95;3.30;;;21.30;84.00;;;;;;6147033;28;20475;-76
2023/04/07 09:31:53;;;;;;;3.22;2.85;;;21.00;81.80;;;;;;6148757;28;20546;-76
2023/04/07 09:34:59;;;;;;;3.33;3.03;;;20.40;81.70;;;;;;6147649;28;20047;-75
2023/04/07 09:38:04;;;;;;;12.80;3.08;;;20.30;81.70;;;;;;6149436;28;20051;-75
2023/04/07 09:41:07;;;;;;;2.47;2.03;;;20.30;81.30;;;;;;6147656;28;20047;-75
2023/04/07 09:44:10;;;;;;;2.58;2.30;;;20.50;80.30;;;;;;6148837;28;20058;-76
2023/04/07 09:47:12;;;;;;;1.30;1.17;;;20.20;78.30;;;;;;6149580;28;20071;-75
2023/04/07 09:50:14;;;;;;;1.30;1.20;;;19.70;78.90;;;;;;6147928;28;20058;-75
2023/04/07 09:53:18;;;;;;;1.92;1.17;;;19.80;79.00;;;;;;6152650;28;20077;-76
2023/04/07 09:56:21;;;;;;;1.33;1.23;;;19.30;77.00;;;;;;6148959;28;20050;-75
2023/04/07 09:59:22;;;;;;;1.63;1.33;;;18.60;79.00;;;;;;6148417;28;20502;-76
2023/04/07 10:02:25;;;;;;;1.58;1.48;;;18.50;79.70;;;;;;6151087;28;20054;-76
2023/04/07 10:05:28;;;;;;;0.93;0.93;;;18.90;79.50;;;;;;6159169;28;20053;-76
2023/04/07 10:08:32;;;;;;;2.13;1.17;;;18.80;77.90;;;;;;6151276;28;20049;-76
2023/04/07 10:11:37;;;;;;;3.35;1.35;;;17.80;77.90;;;;;;6147132;28;20047;-76
2023/04/07 10:14:39;;;;;;;1.02;0.93;;;17.30;79.20;;;;;;6148927;28;20104;-79
2023/04/07 10:17:45;;;;;;;1.80;1.23;;;16.80;79.50;;;;;;6154766;28;20511;-78
2023/04/07 10:20:49;;;;;;;1.40;1.30;;;17.00;80.70;;;;;;6146034;28;20163;-78
2023/04/07 10:23:59;;;;;;;1.00;0.90;;;17.50;80.70;;;;;;6153841;28;20541;-78
2023/04/07 10:27:10;;;;;;;2.13;1.77;;;17.70;80.70;;;;;;6146282;28;20161;-77
2023/04/07 10:30:15;;;;;;;1.33;1.23;;;18.20;80.10;;;;;;6148393;28;20565;-77
2023/04/07 10:33:17;;;;;;;2.80;1.50;;;18.60;79.00;;;;;;6153594;28;20055;-77
2023/04/07 10:36:20;;;;;;;2.00;1.60;;;19.00;78.40;;;;;;6150645;28;20071;-78
2023/04/07 10:39:23;;;;;;;1.77;1.10;;;19.60;78.10;;;;;;6148346;28;20067;-77
2023/04/07 10:42:45;;;;;;;1.67;1.52;;;20.10;76.40;;;;;;6146534;28;20085;-76
2023/04/07 10:45:58;;;;;;;5.68;2.55;;;20.20;74.60;;;;;;6151024;28;20051;-75
2023/04/07 10:49:08;;;;;;;3.63;2.88;;;20.00;74.50;;;;;;6148938;28;20079;-76
2023/04/07 10:52:23;;;;;;;3.50;1.67;;;19.80;74.50;;;;;;6151324;28;20054;-76
2023/04/07 10:55:35;;;;;;;4.35;2.08;;;19.50;73.70;;;;;;6147695;28;20042;-79
2023/04/07 10:58:36;;;;;;;3.63;2.15;;;19.00;74.50;;;;;;6148985;28;20050;-76
2023/04/07 11:01:38;;;;;;;2.33;2.00;;;18.60;74.60;;;;;;6150100;28;20433;-76
2023/04/07 11:04:41;;;;;;;2.50;2.30;;;18.40;75.60;;;;;;6153611;28;20074;-76
2023/04/07 11:07:49;;;;;;;3.33;1.65;;;18.60;75.60;;;;;;6151321;28;20047;-76
2023/04/07 11:10:52;;;;;;;3.88;1.75;;;19.10;74.60;;;;;;6152050;28;20546;-76
2023/04/07 11:13:54;;;;;;;4.28;2.33;;;19.70;73.60;;;;;;6157570;28;20438;-75
2023/04/07 11:16:56;;;;;;;2.33;1.65;;;19.70;71.90;;;;;;6152409;28;20046;-75
2023/04/07 11:19:58;;;;;;;4.32;2.40;;;19.90;71.30;;;;;;6151847;28;20051;-77
2023/04/07 11:23:00;;;;;;;3.05;2.33;;;20.20;69.90;;;;;;6151664;28;20517;-76
2023/04/07 11:26:03;;;;;;;2.22;2.03;;;20.00;69.50;;;;;;6153465;28;20058;-77
2023/04/07 11:29:05;;;;;;;1.67;1.58;;;19.70;69.10;;;;;;6151901;28;20121;-78
2023/04/07 11:32:07;;;;;;;1.67;1.20;;;19.60;68.60;;;;;;6147955;28;20149;-76
2023/04/07 11:35:10;;;;;;;5.13;4.72;;;19.60;68.50;;;;;;6152277;28;20137;-76
2023/04/07 11:38:12;;;;;;;2.42;2.00;;;19.60;68.30;;;;;;6150709;28;20062;-76
2023/04/07 11:41:16;;;;;;;1.88;1.77;;;19.50;69.00;;;;;;6151828;28;20055;-77
2023/04/07 11:44:18;;;;;;;3.22;1.58;;;19.50;69.30;;;;;;6147427;28;20042;-77
2023/04/07 11:47:20;;;;;;;2.67;1.77;;;19.70;69.30;;;;;;6154608;28;20058;-76
2023/04/07 11:50:40;;;;;;;1.67;1.20;;;20.00;69.00;;;;;;6150462;28;20051;-77
2023/04/07 11:53:42;;;;;;;1.40;1.30;;;20.30;68.00;;;;;;6148673;28;20103;-77
2023/04/07 11:56:47;;;;;;;2.15;1.63;;;20.20;68.10;;;;;;6152518;28;20054;-76
2023/04/07 11:59:48;;;;;;;1.83;1.13;;;19.70;67.40;;;;;;6149700;28;20157;-77
2023/04/07 12:02:50;;;;;;;3.20;1.27;;;19.00;68.00;;;;;;6155018;28;20043;-77
2023/04/07 12:05:53;;;;;;;2.70;1.17;;;18.70;67.90;;;;;;6150641;28;20058;-76
2023/04/07 12:08:54;;;;;;;1.20;0.73;;;19.00;69.30;;;;;;6149316;28;20134;-76
2023/04/07 12:11:58;;;;;;;0.80;0.80;;;19.70;68.10;;;;;;6146581;28;20062;-76
2023/04/07 12:15:00;;;;;;;3.15;1.02;;;20.40;66.80;;;;;;6150487;28;20054;-76
2023/04/07 12:18:03;;;;;;;2.08;1.08;;;21.00;65.50;;;;;;6147622;28;20090;-76
2023/04/07 12:21:05;;;;;;;1.88;0.52;;;21.70;64.50;;;;;;6154149;28;20055;-76
2023/04/07 12:24:07;;;;;;;0.73;0.57;;;22.40;63.10;;;;;;6156161;28;20043;-77
2023/04/07 12:27:10;;;;;;;1.65;1.17;;;22.90;61.10;;;;;;6147573;28;20062;-76
2023/04/07 12:30:17;;;;;;;2.08;0.85;;;22.90;60.00;;;;;;6149377;28;20150;-77
2023/04/07 12:33:20;;;;;;;1.23;0.95;;;23.10;59.10;;;;;;6148966;28;20205;-76
2023/04/07 12:36:22;;;;;;;0.63;0.63;;;23.10;58.40;;;;;;6148298;28;20077;-77
2023/04/07 12:39:24;;;;;;;1.80;0.90;;;23.10;57.80;;;;;;6151613;28;20043;-77
2023/04/07 12:42:27;;;;;;;2.97;1.33;;;23.30;57.00;;;;;;6150215;28;20081;-76
2023/04/07 12:45:30;;;;;;;1.25;0.95;;;23.10;56.50;;;;;;6154404;28;20055;-76
2023/04/07 12:48:32;;;;;;;2.60;1.35;;;22.90;57.30;;;;;;6150641;28;20129;-76
2023/04/07 12:51:34;;;;;;;4.70;1.30;;;22.60;56.90;;;;;;6152085;28;20476;-76
2023/04/07 12:54:36;;;;;;;4.00;1.40;;;22.00;57.60;;;;;;6152185;28;20858;-77
2023/04/07 12:57:39;;;;;;;1.55;0.93;;;21.70;57.80;;;;;;6150919;28;20064;-76
2023/04/07 13:00:41;;;;;;;2.90;1.40;;;21.60;58.00;;;;;;6151515;28;20040;-76
2023/04/07 13:03:43;;;;;;;3.08;1.63;;;21.30;58.50;;;;;;6146724;28;20071;-77
2023/04/07 13:06:44;;;;;;;2.85;1.55;;;21.00;59.30;;;;;;6149110;28;20059;-77
2023/04/07 13:09:48;;;;;;;3.67;3.38;;;20.80;60.60;;;;;;6157097;28;20060;-78
2023/04/07 13:12:57;;;;;;;2.28;1.20;;;20.50;64.10;;;;;;6161060;28;20059;-78
2023/04/07 13:15:59;;;;;;;1.88;1.33;;;19.90;68.70;;;;;;6157280;28;20169;-77
2023/04/07 13:19:02;;;;;;;4.30;2.05;;;19.30;70.90;;;;;;6148339;28;20065;-77
2023/04/07 13:22:04;;;;;;;4.47;1.40;;;18.70;74.20;;;;;;6148766;28;20328;-78
2023/04/07 13:25:07;;;;;;;6.03;2.00;;;17.80;77.60;;;;;;6152362;28;20047;-78
2023/04/07 13:28:10;;;;;;;1.98;1.30;;;17.00;81.60;;;;;;6147193;28;20046;-77
2023/04/07 13:31:14;;;;;;;1.40;1.20;;;16.30;85.60;;;;;;6155604;28;20059;-77
2023/04/07 13:34:16;;;;;;;1.20;1.15;;;15.60;87.10;;;;;;6153101;28;20166;-77
2023/04/07 13:37:18;;;;;;;1.38;1.25;;;15.00;89.90;;;;;;6162839;28;20054;-77
2023/04/07 13:40:20;;;;;;;1.77;1.38;;;14.60;91.60;;;;;;6153421;28;20110;-77
2023/04/07 13:43:23;;;;;;;1.35;1.17;;;14.30;93.00;;;;;;6148890;28;20497;-77
2023/04/07 13:46:26;;;;;;;3.45;1.67;;;14.20;94.60;;;;;;6151525;28;20524;-77
2023/04/07 13:49:27;;;;;;;2.65;1.63;;;14.20;96.10;;;;;;6154178;28;20441;-78
2023/04/07 13:52:31;;;;;;;2.22;2.03;;;14.20;97.70;;;;;;6150746;28;20054;-78
2023/04/07 13:55:33;;;;;;;1.60;1.50;;;14.40;99.40;;;;;;6154337;28;20055;-77
2023/04/07 13:58:36;;;;;;;3.42;1.73;;;14.30;99.90;;;;;;6152064;28;20054;-78
2023/04/07 14:01:39;;;;;;;1.80;1.70;;;14.30;99.90;;;;;;6153233;28;20055;-79
2023/04/07 14:04:40;;;;;;;1.70;1.48;;;14.40;99.90;;;;;;6152580;28;20421;-79
2023/04/07 14:07:42;;;;;;;1.75;1.55;;;14.50;99.90;;;;;;6152305;28;20544;-78
2023/04/07 14:10:44;;;;;;;2.10;1.88;;;14.50;99.90;;;;;;6153029;28;20067;-79
2023/04/07 14:13:47;;;;;;;1.52;1.42;;;14.40;99.90;;;;;;6155794;28;20066;-79
2023/04/07 14:16:50;;;;;;;5.68;5.15;;;14.30;99.90;;;;;;6156834;28;20541;-79
2023/04/07 14:19:52;;;;;;;1.38;1.27;;;14.20;99.90;;;;;;6151819;28;20051;-79
2023/04/07 14:22:53;;;;;;;1.88;1.63;;;14.20;99.90;;;;;;6148337;28;20050;-78
2023/04/07 14:25:55;;;;;;;2.40;2.20;;;14.00;99.90;;;;;;6148494;28;20051;-78
2023/04/07 14:28:58;;;;;;;1.83;1.73;;;13.90;99.90;;;;;;6153019;28;20046;-78
2023/04/07 14:32:00;;;;;;;1.67;1.52;;;13.80;99.90;;;;;;6155801;28;20070;-79
2023/04/07 14:35:03;;;;;;;2.28;1.60;;;13.70;99.90;;;;;;6150477;28;20043;-79
2023/04/07 14:38:06;;;;;;;19.85;18.05;;;13.70;99.90;;;;;;6149857;28;20047;-78
2023/04/07 14:41:09;;;;;;;1.80;1.70;;;13.80;99.90;;;;;;6150258;28;20117;-78
2023/04/07 14:44:13;;;;;;;2.72;1.90;;;13.80;99.90;;;;;;6154008;28;20094;-79
2023/04/07 14:47:17;;;;;;;5.47;1.70;;;13.70;99.90;;;;;;6154859;28;20061;-78
2023/04/07 14:50:20;;;;;;;3.15;2.38;;;13.80;99.90;;;;;;6162091;28;20055;-79
2023/04/07 14:53:22;;;;;;;3.38;1.90;;;13.60;99.90;;;;;;6151226;28;20569;-79
2023/04/07 14:56:26;;;;;;;1.10;1.00;;;13.70;99.90;;;;;;6154795;28;20148;-78
2023/04/07 14:59:30;;;;;;;1.85;1.50;;;13.70;99.90;;;;;;6152714;28;20063;-77
2023/04/07 15:02:32;;;;;;;2.20;1.10;;;13.50;99.90;;;;;;6149291;28;20043;-78
2023/04/07 15:05:37;;;;;;;1.63;1.17;;;13.40;99.90;;;;;;6153934;28;20047;-77
2023/04/07 15:08:53;;;;;;;1.98;1.20;;;13.40;99.90;;;;;;6163164;28;20050;-77
2023/04/07 15:12:06;;;;;;;1.58;1.17;;;13.40;99.90;;;;;;6158240;28;20473;-77
2023/04/07 15:15:23;;;;;;;1.60;1.50;;;13.40;99.90;;;;;;6154277;28;20047;-79
2023/04/07 15:18:29;;;;;;;1.50;0.95;;;13.50;99.90;;;;;;6146558;28;20066;-79
2023/04/07 15:21:37;;;;;;;1.80;1.65;;;13.60;99.90;;;;;;6164779;28;20085;-78
2023/04/07 15:27:57;;;;;;;1.52;1.33;;;13.50;99.90;;;;;;6150121;28;20051;-79
2023/04/07 15:31:07;;;;;;;1.98;1.77;;;13.40;99.90;;;;;;6150013;28;20043;-78
2023/04/07 15:34:11;;;;;;;3.05;2.70;;;13.20;99.90;;;;;;6151802;28;20138;-79
2023/04/07 15:37:16;;;;;;;5.05;2.72;;;13.00;99.90;;;;;;6157463;28;20063;-77
2023/04/07 15:40:30;;;;;;;1.45;1.25;;;13.00;99.90;;;;;;6168134;28;20067;-78
2023/04/07 15:47:31;;;;;;;2.83;1.63;;;12.80;99.90;;;;;;6152205;28;20397;-80
2023/04/07 15:50:34;;;;;;;1.45;1.35;;;12.60;99.90;;;;;;6158427;28;20058;-78
2023/04/07 15:53:38;;;;;;;1.98;1.80;;;12.40;99.90;;;;;;6157215;28;20058;-77
2023/04/07 16:00:38;;;;;;;1.92;1.80;;;12.40;99.90;;;;;;6173105;28;20043;-78
2023/04/07 16:08:04;;;;;;;1.80;1.70;;;12.30;99.90;;;;;;6167975;28;20047;-78
2023/04/07 16:21:18;;;;;;;2.93;2.73;;;12.50;99.90;;;;;;6166008;28;20053;-78
2023/04/07 16:32:08;;;;;;;2.30;2.10;;;12.80;99.90;;;;;;6157516;28;20043;-77